createdAt,value
2022-11-07T20:14:02.694Z,100939.50
2022-11-07T20:16:30.603Z,100936.28
2022-11-07T20:18:57.439Z,100933.84
2022-11-07T20:21:24.478Z,100934.94
2022-11-07T20:23:53.723Z,100943.66
2022-11-07T20:26:24.394Z,100944.44
2022-11-07T20:28:52.319Z,100939.72
2022-11-07T20:31:23.763Z,100945.50
2022-11-07T20:33:50.737Z,100945.25
2022-11-07T20:36:18.727Z,100951.84
2022-11-07T20:38:45.317Z,100939.44
2022-11-07T20:41:13.587Z,100939.44
2022-11-07T20:43:41.047Z,100942.34
2022-11-07T20:46:10.988Z,100947.03
2022-11-07T20:48:39.053Z,100944.38
2022-11-07T20:51:08.639Z,100948.66
2022-11-07T20:53:37.007Z,100954.97
2022-11-07T20:56:07.982Z,100952.84
2022-11-07T20:58:39.785Z,100948.09
2022-11-07T21:01:08.244Z,100944.38
2022-11-07T21:03:35.441Z,100952.28
2022-11-07T21:06:01.950Z,100947.50
2022-11-07T21:08:30.808Z,100951.72
2022-11-07T21:11:01.153Z,100960.19
2022-11-07T21:13:27.661Z,100953.78
2022-11-07T21:15:54.200Z,100966.13
2022-11-07T21:18:20.740Z,100964.91
2022-11-07T21:20:47.341Z,100959.13
2022-11-07T21:23:15.628Z,100960.22
2022-11-07T21:25:45.370Z,100960.75
2022-11-07T21:28:16.976Z,100952.34
2022-11-07T21:30:59.314Z,100959.44
2022-11-07T21:33:26.094Z,100950.16
2022-11-07T21:35:52.848Z,100953.38
2022-11-07T21:38:19.745Z,100947.78
2022-11-07T21:40:46.471Z,100955.94
2022-11-07T21:43:13.163Z,100946.13
2022-11-07T21:45:39.726Z,100947.53
2022-11-07T21:48:06.532Z,100947.50
2022-11-07T21:50:44.648Z,100936.75
2022-11-07T21:53:11.890Z,100938.63
2022-11-07T21:55:38.412Z,100933.59
2022-11-07T21:58:04.927Z,100935.66
2022-11-07T22:00:35.810Z,100941.94
2022-11-07T22:03:02.939Z,100942.97
2022-11-07T22:05:29.475Z,100941.13
2022-11-07T22:07:56.425Z,100942.69
2022-11-07T22:10:22.916Z,100936.88
2022-11-07T22:12:51.132Z,100935.28
2022-11-07T22:15:17.639Z,100942.66
2022-11-07T22:17:44.162Z,100935.22
2022-11-07T22:20:11.312Z,100937.28
2022-11-07T22:22:37.788Z,100936.06
2022-11-07T22:25:04.817Z,100931.78
2022-11-07T22:27:31.389Z,100928.91
2022-11-07T22:29:57.900Z,100928.34
2022-11-07T22:32:24.434Z,100930.13
2022-11-07T22:34:50.927Z,100920.41
2022-11-07T22:37:17.435Z,100918.81
2022-11-07T22:39:43.980Z,100918.16
2022-11-07T22:42:10.443Z,100915.63
2022-11-07T22:44:36.999Z,100909.78
2022-11-07T22:47:03.550Z,100906.03
2022-11-07T22:49:30.158Z,100919.31
2022-11-07T22:51:56.685Z,100911.88
2022-11-07T22:54:23.233Z,100911.25
2022-11-07T22:56:49.740Z,100907.09
2022-11-07T22:59:16.356Z,100910.44
2022-11-07T23:01:43.023Z,100900.72
2022-11-07T23:04:15.526Z,100904.28
2022-11-07T23:06:42.206Z,100907.22
2022-11-07T23:09:10.932Z,100901.16
2022-11-07T23:11:46.034Z,100907.94
2022-11-07T23:14:15.468Z,100898.78
2022-11-07T23:16:50.266Z,100900.56
2022-11-07T23:19:19.828Z,100895.25
2022-11-07T23:21:47.451Z,100899.25
2022-11-07T23:24:14.179Z,100902.25
2022-11-07T23:26:40.744Z,100895.22
2022-11-07T23:29:12.201Z,100894.72
2022-11-07T23:31:40.009Z,100886.22
2022-11-07T23:34:07.000Z,100899.06
2022-11-07T23:36:33.555Z,100900.19
2022-11-07T23:39:08.322Z,100892.41
2022-11-07T23:41:35.111Z,100891.81
2022-11-07T23:44:02.321Z,100893.22
2022-11-07T23:46:47.448Z,100889.31
2022-11-07T23:49:32.665Z,100891.78
2022-11-07T23:51:59.161Z,100887.81
2022-11-07T23:54:44.241Z,100895.16
2022-11-07T23:57:10.760Z,100894.00
2022-11-07T23:59:55.922Z,100887.72
